createdAt,value
2022-09-02T00:00:06.827Z,73089.41
2022-09-02T00:00:42.350Z,73095.41
2022-09-02T00:01:17.502Z,73095.41
2022-09-02T00:01:52.876Z,73093.41
2022-09-02T00:02:25.552Z,73101.41
2022-09-02T00:02:58.113Z,73101.41
2022-09-02T00:03:35.067Z,73101.41
2022-09-02T00:04:09.472Z,73095.41
2022-09-02T00:04:45.133Z,73097.41
2022-09-02T00:05:18.165Z,73095.41
2022-09-02T00:05:50.544Z,73097.41
2022-09-02T00:06:25.515Z,73103.38
2022-09-02T00:06:57.802Z,73093.41
2022-09-02T00:07:30.157Z,73093.41
2022-09-02T00:08:02.997Z,73097.41
2022-09-02T00:08:38.017Z,73097.41
2022-09-02T00:09:12.834Z,73097.41
2022-09-02T00:09:47.737Z,73089.41
2022-09-02T00:10:22.658Z,73091.41
2022-09-02T00:10:55.019Z,73093.41
2022-09-02T00:11:33.087Z,73089.41
2022-09-02T00:12:06.900Z,73091.41
2022-09-02T00:12:39.242Z,73089.41
2022-09-02T00:13:16.887Z,73091.41
2022-09-02T00:13:49.981Z,73097.41
2022-09-02T00:14:28.460Z,73095.41
2022-09-02T00:15:00.833Z,73091.41
2022-09-02T00:15:34.252Z,73093.41
2022-09-02T00:16:07.386Z,73093.41
2022-09-02T00:16:48.908Z,73093.41
2022-09-02T00:17:21.337Z,73093.41
2022-09-02T00:17:54.028Z,73097.41
2022-09-02T00:18:29.557Z,73093.41
2022-09-02T00:19:02.799Z,73093.41
2022-09-02T00:19:35.397Z,73093.41
2022-09-02T00:20:11.097Z,73097.41
2022-09-02T00:20:45.813Z,73099.41
2022-09-02T00:21:18.645Z,73097.41
2022-09-02T00:21:54.377Z,73097.41
2022-09-02T00:22:26.626Z,73097.41
2022-09-02T00:22:59.185Z,73097.41
2022-09-02T00:23:34.098Z,73097.41
2022-09-02T00:24:07.905Z,73097.41
2022-09-02T00:24:40.474Z,73107.38
2022-09-02T00:25:15.789Z,73097.41
2022-09-02T00:25:50.858Z,73099.41
2022-09-02T00:26:23.217Z,73099.41
2022-09-02T00:26:58.257Z,73097.41
2022-09-02T00:27:30.911Z,73097.41
2022-09-02T00:28:03.672Z,73101.41
2022-09-02T00:28:49.065Z,73099.41
2022-09-02T00:29:29.071Z,73095.41
2022-09-02T00:30:04.044Z,73089.41
2022-09-02T00:30:36.443Z,73095.41
2022-09-02T00:31:08.841Z,73091.41
2022-09-02T00:31:45.459Z,73093.41
2022-09-02T00:32:17.904Z,73093.41
2022-09-02T00:32:50.209Z,73093.41
2022-09-02T00:33:25.290Z,73091.41
2022-09-02T00:33:58.098Z,73091.41
2022-09-02T00:34:30.481Z,73087.41
2022-09-02T00:35:05.769Z,73093.41
2022-09-02T00:35:38.097Z,73093.41
2022-09-02T00:36:11.135Z,73089.41
2022-09-02T00:36:46.230Z,73089.41
2022-09-02T00:37:18.563Z,73089.41
2022-09-02T00:37:51.069Z,73089.41
2022-09-02T00:38:26.086Z,73089.41
2022-09-02T00:38:58.457Z,73085.44
2022-09-02T00:39:30.861Z,73089.41
2022-09-02T00:40:07.784Z,73095.41
2022-09-02T00:40:44.758Z,73089.41
2022-09-02T00:41:21.551Z,73083.44
2022-09-02T00:41:57.006Z,73085.44
2022-09-02T00:42:29.451Z,73087.41
2022-09-02T00:43:01.929Z,73085.44
2022-09-02T00:43:47.910Z,73085.44
2022-09-02T00:44:20.538Z,73085.44
2022-09-02T00:44:53.337Z,73095.41
2022-09-02T00:45:28.985Z,73089.41
2022-09-02T00:46:01.492Z,73085.44
2022-09-02T00:46:34.202Z,73077.44
2022-09-02T00:47:09.257Z,73085.44
2022-09-02T00:47:41.605Z,73085.44
2022-09-02T00:48:13.930Z,73085.44
2022-09-02T00:48:52.746Z,73081.44
2022-09-02T00:49:26.724Z,73081.44
2022-09-02T00:50:00.296Z,73085.44
2022-09-02T00:50:38.730Z,73087.41
2022-09-02T00:51:12.426Z,73077.44
2022-09-02T00:51:47.703Z,73085.44
2022-09-02T00:52:26.742Z,73087.41
2022-09-02T00:53:05.813Z,73087.41
2022-09-02T00:53:39.613Z,73089.41
2022-09-02T00:54:16.307Z,73083.44
2022-09-02T00:54:51.347Z,73077.44
2022-09-02T00:55:26.945Z,73085.44
2022-09-02T00:56:02.086Z,73087.41
2022-09-02T00:56:38.147Z,73087.41
2022-09-02T00:57:19.577Z,73085.44
2022-09-02T00:57:57.046Z,73083.44
2022-09-02T00:58:33.353Z,73091.41
2022-09-02T00:59:08.659Z,73085.44
2022-09-02T00:59:45.773Z,73089.41
2022-09-02T01:00:20.902Z,73089.41
2022-09-02T01:00:58.745Z,73089.41
2022-09-02T01:01:31.506Z,73085.44
2022-09-02T01:02:04.201Z,73089.41
2022-09-02T01:02:40.956Z,73091.41
2022-09-02T01:03:16.553Z,73095.41
2022-09-02T01:03:49.805Z,73093.41
2022-09-02T01:04:24.821Z,73097.41
2022-09-02T01:04:58.233Z,73089.41
2022-09-02T01:05:33.481Z,73093.41
2022-09-02T01:06:09.136Z,73095.41
2022-09-02T01:06:41.462Z,73095.41
2022-09-02T01:07:14.819Z,73097.41
2022-09-02T01:07:51.333Z,73097.41
2022-09-02T01:08:27.003Z,73095.41
2022-09-02T01:09:08.556Z,73097.41
2022-09-02T01:09:41.206Z,73097.41
2022-09-02T01:10:18.718Z,73105.38
2022-09-02T01:10:55.873Z,73097.41
2022-09-02T01:11:32.634Z,73099.41
2022-09-02T01:12:08.849Z,73101.41
2022-09-02T01:12:44.322Z,73101.41
2022-09-02T01:13:19.653Z,73101.41
2022-09-02T01:13:52.042Z,73103.38
2022-09-02T01:14:28.666Z,73101.41
2022-09-02T01:15:01.373Z,73099.41
2022-09-02T01:15:36.518Z,73105.38
2022-09-02T01:16:15.218Z,73103.38
2022-09-02T01:16:50.573Z,73105.38
2022-09-02T01:17:24.454Z,73105.38
2022-09-02T01:17:59.408Z,73101.41
2022-09-02T01:18:32.132Z,73105.38
2022-09-02T01:19:07.554Z,73101.41
2022-09-02T01:19:47.369Z,73101.41
2022-09-02T01:20:25.408Z,73101.41
2022-09-02T01:20:59.780Z,73105.38
2022-09-02T01:21:34.798Z,73109.38
2022-09-02T01:22:16.301Z,73103.38
2022-09-02T01:22:52.269Z,73097.41
2022-09-02T01:23:28.248Z,73099.41
2022-09-02T01:24:03.192Z,73099.41
2022-09-02T01:24:35.492Z,73105.38
2022-09-02T01:25:10.564Z,73099.41
2022-09-02T01:25:43.273Z,73101.41
2022-09-02T01:26:18.282Z,73105.38
2022-09-02T01:26:53.684Z,73105.38
2022-09-02T01:27:27.675Z,73105.38
2022-09-02T01:28:04.074Z,73099.41
2022-09-02T01:28:36.523Z,73101.41
2022-09-02T01:29:09.609Z,73105.38
2022-09-02T01:29:44.620Z,73101.41
2022-09-02T01:30:19.652Z,73101.41
2022-09-02T01:30:54.445Z,73105.38
2022-09-02T01:31:29.460Z,73101.41
2022-09-02T01:32:02.633Z,73101.41
2022-09-02T01:32:34.968Z,73105.38
2022-09-02T01:33:09.923Z,73105.38
2022-09-02T01:33:42.425Z,73113.38
2022-09-02T01:34:20.921Z,73109.38
2022-09-02T01:34:53.281Z,73109.38
2022-09-02T01:35:26.294Z,73109.38
2022-09-02T01:36:04.293Z,73105.38
2022-09-02T01:36:39.331Z,73103.38
2022-09-02T01:37:15.160Z,73105.38
2022-09-02T01:37:55.772Z,73101.41
2022-09-02T01:38:28.539Z,73101.41
2022-09-02T01:39:00.885Z,73101.41
2022-09-02T01:39:35.902Z,73107.38
2022-09-02T01:40:10.768Z,73105.38
2022-09-02T01:40:43.522Z,73109.38
2022-09-02T01:41:18.575Z,73109.38
2022-09-02T01:41:50.945Z,73111.38
2022-09-02T01:42:25.952Z,73105.38
2022-09-02T01:43:03.681Z,73113.38
2022-09-02T01:43:35.995Z,73109.38
2022-09-02T01:44:08.560Z,73113.38
2022-09-02T01:44:44.270Z,73117.38
2022-09-02T01:45:17.145Z,73117.38
2022-09-02T01:45:50.667Z,73113.38
2022-09-02T01:46:26.277Z,73113.38
2022-09-02T01:46:58.857Z,73113.38
2022-09-02T01:47:31.997Z,73111.38
2022-09-02T01:48:08.869Z,73109.38
2022-09-02T01:48:41.206Z,73115.38
2022-09-02T01:49:13.896Z,73111.38
2022-09-02T01:49:49.505Z,73115.38
2022-09-02T01:50:21.993Z,73111.38
2022-09-02T01:51:02.579Z,73113.38
2022-09-02T01:51:35.089Z,73113.38
2022-09-02T01:52:09.237Z,73113.38
2022-09-02T01:52:45.613Z,73113.38
2022-09-02T01:53:21.000Z,73105.38
2022-09-02T01:53:53.558Z,73113.38
2022-09-02T01:54:25.916Z,73107.38
2022-09-02T01:55:01.218Z,73109.38
2022-09-02T01:55:34.322Z,73113.38
2022-09-02T01:56:06.794Z,73109.38
2022-09-02T01:56:42.597Z,73107.38
2022-09-02T01:57:15.141Z,73101.41
2022-09-02T01:57:47.665Z,73103.38
2022-09-02T01:58:23.455Z,73097.41
2022-09-02T01:58:56.343Z,73103.38
2022-09-02T01:59:28.822Z,73097.41
2022-09-02T02:00:04.325Z,73097.41
2022-09-02T02:00:44.809Z,73093.41
2022-09-02T02:01:17.317Z,73091.41
2022-09-02T02:01:54.120Z,73097.41
2022-09-02T02:02:26.654Z,73087.41
2022-09-02T02:02:59.410Z,73089.41
2022-09-02T02:03:35.968Z,73085.44
2022-09-02T02:04:13.401Z,73089.41
2022-09-02T02:04:49.458Z,73087.41
2022-09-02T02:05:25.354Z,73085.44
2022-09-02T02:05:58.861Z,73089.41
2022-09-02T02:06:32.137Z,73081.44
2022-09-02T02:07:07.686Z,73077.44
2022-09-02T02:07:42.211Z,73077.44
2022-09-02T02:08:17.168Z,73087.41
2022-09-02T02:08:52.771Z,73085.44
2022-09-02T02:09:27.749Z,73081.44
2022-09-02T02:10:00.145Z,73081.44
2022-09-02T02:10:34.280Z,73085.44
2022-09-02T02:11:09.857Z,73081.44
2022-09-02T02:11:43.066Z,73075.44
2022-09-02T02:12:16.897Z,73077.44
2022-09-02T02:12:51.982Z,73081.44
2022-09-02T02:13:26.549Z,73081.44
2022-09-02T02:14:01.485Z,73077.44
2022-09-02T02:14:33.957Z,73081.44
2022-09-02T02:15:08.817Z,73075.44
2022-09-02T02:15:45.206Z,73077.44
2022-09-02T02:16:17.638Z,73083.44
2022-09-02T02:16:50.863Z,73081.44
2022-09-02T02:17:26.267Z,73081.44
2022-09-02T02:17:58.641Z,73073.44
2022-09-02T02:18:31.358Z,73077.44
2022-09-02T02:19:07.930Z,73075.44
2022-09-02T02:19:40.412Z,73083.44
2022-09-02T02:20:15.188Z,73083.44
2022-09-02T02:20:50.149Z,73075.44
2022-09-02T02:21:22.501Z,73083.44
2022-09-02T02:21:56.371Z,73081.44
2022-09-02T02:22:31.462Z,73079.44
2022-09-02T02:23:03.882Z,73081.44
2022-09-02T02:23:38.894Z,73081.44
2022-09-02T02:24:14.743Z,73075.44
2022-09-02T02:24:47.140Z,73077.44
2022-09-02T02:25:19.513Z,73081.44
2022-09-02T02:25:57.625Z,73077.44
2022-09-02T02:26:31.021Z,73079.44
2022-09-02T02:27:04.557Z,73081.44
2022-09-02T02:27:39.626Z,73079.44
2022-09-02T02:28:16.368Z,73083.44
2022-09-02T02:28:48.873Z,73077.44
2022-09-02T02:29:24.884Z,73077.44
2022-09-02T02:29:57.303Z,73077.44
2022-09-02T02:30:29.817Z,73079.44
2022-09-02T02:31:05.420Z,73081.44
2022-09-02T02:31:37.940Z,73081.44
2022-09-02T02:32:10.312Z,73077.44
2022-09-02T02:32:48.372Z,73085.44
2022-09-02T02:33:23.622Z,73083.44
2022-09-02T02:34:03.298Z,73081.44
2022-09-02T02:34:38.842Z,73085.44
2022-09-02T02:35:11.541Z,73081.44
2022-09-02T02:35:44.104Z,73077.44
2022-09-02T02:36:19.120Z,73083.44
2022-09-02T02:36:51.506Z,73081.44
2022-09-02T02:37:26.446Z,73081.44
2022-09-02T02:38:03.618Z,73081.44
2022-09-02T02:38:39.811Z,73089.41
2022-09-02T02:39:13.033Z,73077.44
2022-09-02T02:39:47.958Z,73083.44
2022-09-02T02:40:23.802Z,73085.44
2022-09-02T02:40:57.649Z,73085.44
2022-09-02T02:41:33.501Z,73085.44
2022-09-02T02:42:07.362Z,73085.44
2022-09-02T02:42:39.997Z,73089.41
2022-09-02T02:43:12.441Z,73089.41
2022-09-02T02:43:47.954Z,73089.41
2022-09-02T02:44:20.540Z,73087.41
2022-09-02T02:44:52.878Z,73087.41
2022-09-02T02:45:28.884Z,73089.41
2022-09-02T02:46:02.759Z,73093.41
2022-09-02T02:46:35.815Z,73089.41
2022-09-02T02:47:11.798Z,73093.41
2022-09-02T02:47:47.217Z,73089.41
2022-09-02T02:48:21.158Z,73093.41
2022-09-02T02:48:56.134Z,73093.41
2022-09-02T02:49:29.333Z,73093.41
2022-09-02T02:50:01.681Z,73097.41
2022-09-02T02:50:38.190Z,73095.41
2022-09-02T02:51:12.073Z,73093.41
2022-09-02T02:51:44.465Z,73095.41
2022-09-02T02:52:19.873Z,73093.41
2022-09-02T02:52:54.851Z,73095.41
2022-09-02T02:53:29.869Z,73091.41
2022-09-02T02:54:07.918Z,73093.41
2022-09-02T02:54:41.342Z,73093.41
2022-09-02T02:55:16.336Z,73089.41
2022-09-02T02:55:51.495Z,73089.41
2022-09-02T02:56:24.118Z,73085.44
2022-09-02T02:56:56.952Z,73097.41
2022-09-02T02:57:31.844Z,73089.41
2022-09-02T02:58:04.234Z,73095.41
2022-09-02T02:58:36.955Z,73093.41
2022-09-02T02:59:12.044Z,73089.41
2022-09-02T02:59:44.431Z,73087.41
2022-09-02T03:00:19.805Z,73085.44
2022-09-02T03:01:01.242Z,73085.44
2022-09-02T03:01:35.003Z,73089.41
2022-09-02T03:02:08.726Z,73089.41
2022-09-02T03:02:41.286Z,73093.41
2022-09-02T03:03:20.001Z,73087.41
2022-09-02T03:03:56.431Z,73081.44
2022-09-02T03:04:31.231Z,73085.44
2022-09-02T03:05:07.925Z,73087.41
2022-09-02T03:05:43.337Z,73085.44
2022-09-02T03:06:15.671Z,73081.44
2022-09-02T03:06:52.460Z,73085.44
2022-09-02T03:07:27.982Z,73081.44
2022-09-02T03:08:03.511Z,73075.44
2022-09-02T03:08:38.453Z,73077.44
2022-09-02T03:09:17.906Z,73073.44
2022-09-02T03:09:50.272Z,73081.44
2022-09-02T03:10:24.489Z,73083.44
2022-09-02T03:11:02.793Z,73073.44
2022-09-02T03:11:36.353Z,73077.44
2022-09-02T03:12:11.674Z,73075.44
2022-09-02T03:12:47.921Z,73081.44
2022-09-02T03:13:24.217Z,73075.44
2022-09-02T03:13:59.641Z,73073.44
2022-09-02T03:14:32.453Z,73077.44
2022-09-02T03:15:11.387Z,73073.44
2022-09-02T03:15:45.442Z,73069.47
2022-09-02T03:16:21.007Z,73073.44
2022-09-02T03:16:56.813Z,73073.44
2022-09-02T03:17:29.289Z,73069.47
2022-09-02T03:18:04.302Z,73071.44
2022-09-02T03:18:36.658Z,73073.44
2022-09-02T03:19:09.201Z,73071.44
2022-09-02T03:19:44.204Z,73077.44
2022-09-02T03:20:19.685Z,73069.47
2022-09-02T03:21:05.101Z,73081.44
2022-09-02T03:21:39.452Z,73073.44
2022-09-02T03:22:14.331Z,73077.44
2022-09-02T03:22:51.797Z,73075.44
2022-09-02T03:23:24.250Z,73073.44
2022-09-02T03:23:57.955Z,73073.44
2022-09-02T03:24:37.496Z,73085.44
2022-09-02T03:25:12.897Z,73075.44
2022-09-02T03:25:47.554Z,73081.44
2022-09-02T03:26:49.430Z,73077.44
2022-09-02T03:27:23.406Z,73075.44
2022-09-02T03:27:56.477Z,73077.44
2022-09-02T03:28:33.242Z,73071.44
2022-09-02T03:29:07.466Z,73073.44
2022-09-02T03:29:46.169Z,73071.44
2022-09-02T03:30:25.353Z,73071.44
2022-09-02T03:31:01.521Z,73071.44
2022-09-02T03:31:38.249Z,73069.47
2022-09-02T03:32:14.872Z,73073.44
2022-09-02T03:32:52.401Z,73077.44
2022-09-02T03:33:27.885Z,73067.47
2022-09-02T03:34:04.461Z,73069.47
2022-09-02T03:34:38.267Z,73073.44
2022-09-02T03:35:18.760Z,73069.47
2022-09-02T03:35:51.749Z,73077.44
2022-09-02T03:36:28.536Z,73071.44
2022-09-02T03:37:01.658Z,73079.44
2022-09-02T03:37:34.893Z,73075.44
2022-09-02T03:38:12.500Z,73081.44
2022-09-02T03:38:44.818Z,73077.44
2022-09-02T03:39:21.259Z,73077.44
2022-09-02T03:40:02.250Z,73077.44
2022-09-02T03:40:36.342Z,73077.44
2022-09-02T03:41:08.969Z,73077.44
2022-09-02T03:41:44.317Z,73085.44
2022-09-02T03:42:19.746Z,73077.44
2022-09-02T03:43:00.109Z,73079.44
2022-09-02T03:43:36.301Z,73073.44
2022-09-02T03:44:09.133Z,73081.44
2022-09-02T03:44:41.803Z,73081.44
2022-09-02T03:45:16.114Z,73085.44
2022-09-02T03:45:51.296Z,73081.44
2022-09-02T03:46:24.007Z,73077.44
2022-09-02T03:46:57.558Z,73081.44
2022-09-02T03:47:35.102Z,73075.44
2022-09-02T03:48:10.127Z,73079.44
2022-09-02T03:48:47.321Z,73081.44
2022-09-02T03:49:22.338Z,73071.44
2022-09-02T03:49:56.757Z,73079.44
2022-09-02T03:50:32.644Z,73075.44
2022-09-02T03:51:11.062Z,73077.44
2022-09-02T03:51:43.777Z,73075.44
2022-09-02T03:52:16.428Z,73077.44
2022-09-02T03:52:54.076Z,73073.44
2022-09-02T03:53:36.073Z,73077.44
2022-09-02T03:54:11.414Z,73073.44
2022-09-02T03:54:45.073Z,73073.44
2022-09-02T03:55:20.273Z,73073.44
2022-09-02T03:55:56.682Z,73065.47
2022-09-02T03:56:31.783Z,73077.44
2022-09-02T03:57:04.989Z,73067.47
2022-09-02T03:57:41.290Z,73073.44
2022-09-02T03:58:14.942Z,73069.47
2022-09-02T03:58:54.253Z,73069.47
2022-09-02T03:59:30.842Z,73065.47
2022-09-02T04:00:05.707Z,73069.47
2022-09-02T04:00:53.408Z,73065.47
2022-09-02T04:01:30.540Z,73069.47
2022-09-02T04:02:16.519Z,73069.47
2022-09-02T04:02:52.065Z,73073.44
2022-09-02T04:03:25.728Z,73069.47
2022-09-02T04:04:05.237Z,73069.47
2022-09-02T04:04:40.997Z,73069.47
2022-09-02T04:05:15.871Z,73069.47
2022-09-02T04:05:49.641Z,73065.47
2022-09-02T04:06:32.545Z,73065.47
2022-09-02T04:07:06.204Z,73065.47
2022-09-02T04:07:39.018Z,73069.47
2022-09-02T04:08:13.969Z,73071.44
2022-09-02T04:08:47.005Z,73071.44
2022-09-02T04:09:20.068Z,73077.44
2022-09-02T04:09:56.522Z,73071.44
2022-09-02T04:10:31.555Z,73077.44
2022-09-02T04:11:07.045Z,73085.44
2022-09-02T04:11:44.205Z,73085.44
2022-09-02T04:12:17.985Z,73089.41
2022-09-02T04:12:50.654Z,73093.41
2022-09-02T04:13:26.045Z,73097.41
2022-09-02T04:13:59.296Z,73091.41
2022-09-02T04:14:35.412Z,73097.41
2022-09-02T04:15:14.994Z,73095.41
2022-09-02T04:15:51.750Z,73099.41
2022-09-02T04:16:29.246Z,73099.41
2022-09-02T04:17:08.992Z,73097.41
2022-09-02T04:17:42.536Z,73097.41
2022-09-02T04:18:18.637Z,73101.41
2022-09-02T04:18:56.473Z,73105.38
2022-09-02T04:19:33.228Z,73105.38
2022-09-02T04:20:11.910Z,73097.41
2022-09-02T04:20:44.562Z,73103.38
2022-09-02T04:21:19.755Z,73105.38
2022-09-02T04:21:56.861Z,73097.41
2022-09-02T04:22:31.750Z,73105.38
2022-09-02T04:23:06.998Z,73103.38
2022-09-02T04:23:40.450Z,73101.41
2022-09-02T04:24:16.126Z,73103.38
2022-09-02T04:24:52.089Z,73103.38
2022-09-02T04:25:31.542Z,73101.41
2022-09-02T04:26:08.449Z,73101.41
2022-09-02T04:26:45.263Z,73105.38
2022-09-02T04:27:19.038Z,73109.38
2022-09-02T04:27:54.075Z,73105.38
2022-09-02T04:28:27.472Z,73107.38
2022-09-02T04:28:59.986Z,73107.38
2022-09-02T04:29:36.344Z,73109.38
2022-09-02T04:30:09.893Z,73109.38
2022-09-02T04:30:45.103Z,73113.38
2022-09-02T04:31:26.281Z,73117.38
2022-09-02T04:31:59.440Z,73113.38
2022-09-02T04:32:34.781Z,73107.38
2022-09-02T04:33:13.801Z,73105.38
2022-09-02T04:33:46.898Z,73109.38
2022-09-02T04:34:21.834Z,73107.38
2022-09-02T04:34:58.440Z,73109.38
2022-09-02T04:35:32.525Z,73111.38
2022-09-02T04:36:05.891Z,73107.38
2022-09-02T04:36:41.661Z,73105.38
2022-09-02T04:37:16.806Z,73111.38
2022-09-02T04:37:49.249Z,73105.38
2022-09-02T04:38:24.225Z,73109.38
2022-09-02T04:38:58.497Z,73111.38
2022-09-02T04:39:34.942Z,73105.38
2022-09-02T04:40:11.529Z,73109.38
2022-09-02T04:40:47.675Z,73107.38
2022-09-02T04:41:25.036Z,73109.38
2022-09-02T04:42:02.858Z,73109.38
2022-09-02T04:42:35.992Z,73117.38
2022-09-02T04:43:09.009Z,73109.38
2022-09-02T04:43:44.408Z,73109.38
2022-09-02T04:44:17.716Z,73111.38
2022-09-02T04:44:54.578Z,73105.38
2022-09-02T04:45:30.793Z,73107.38
2022-09-02T04:46:05.608Z,73115.38
2022-09-02T04:46:40.922Z,73113.38
2022-09-02T04:47:17.568Z,73111.38
2022-09-02T04:47:50.285Z,73107.38
2022-09-02T04:48:25.975Z,73109.38
2022-09-02T04:48:58.838Z,73105.38
2022-09-02T04:49:33.334Z,73105.38
2022-09-02T04:50:09.523Z,73109.38
2022-09-02T04:50:43.625Z,73109.38
2022-09-02T04:51:22.349Z,73113.38
2022-09-02T04:51:55.838Z,73117.38
2022-09-02T04:52:32.174Z,73109.38
2022-09-02T04:53:06.345Z,73117.38
2022-09-02T04:53:39.725Z,73109.38
2022-09-02T04:54:14.732Z,73117.38
2022-09-02T04:54:49.682Z,73115.38
2022-09-02T04:55:22.432Z,73115.38
2022-09-02T04:56:01.176Z,73115.38
2022-09-02T04:56:34.022Z,73113.38
2022-09-02T04:57:08.365Z,73117.38
2022-09-02T04:57:43.949Z,73111.38
2022-09-02T04:58:16.822Z,73117.38
2022-09-02T04:58:52.158Z,73111.38
2022-09-02T04:59:29.250Z,73109.38
2022-09-02T05:00:13.597Z,73113.38
2022-09-02T05:00:48.544Z,73111.38
2022-09-02T05:01:24.299Z,73113.38
2022-09-02T05:02:00.994Z,73105.38
2022-09-02T05:02:36.002Z,73115.38
2022-09-02T05:03:08.688Z,73107.38
2022-09-02T05:03:44.759Z,73109.38
2022-09-02T05:04:17.866Z,73113.38
2022-09-02T05:04:54.204Z,73107.38
2022-09-02T05:05:36.442Z,73113.38
2022-09-02T05:06:11.924Z,73113.38
2022-09-02T05:06:46.650Z,73109.38
2022-09-02T05:07:26.826Z,73109.38
2022-09-02T05:08:02.117Z,73109.38
2022-09-02T05:08:36.678Z,73109.38
2022-09-02T05:09:12.535Z,73109.38
2022-09-02T05:09:45.428Z,73105.38
2022-09-02T05:10:18.888Z,73107.38
2022-09-02T05:10:55.186Z,73105.38
2022-09-02T05:11:32.061Z,73101.41
2022-09-02T05:12:05.974Z,73105.38
2022-09-02T05:12:48.246Z,73101.41
2022-09-02T05:13:20.838Z,73101.41
2022-09-02T05:13:53.362Z,73099.41
2022-09-02T05:14:30.845Z,73103.38
2022-09-02T05:15:08.711Z,73103.38
2022-09-02T05:15:43.606Z,73105.38
2022-09-02T05:16:20.424Z,73101.41
2022-09-02T05:16:54.128Z,73101.41
2022-09-02T05:17:27.113Z,73105.38
2022-09-02T05:18:03.744Z,73109.38
2022-09-02T05:18:39.197Z,73099.41
2022-09-02T05:19:13.831Z,73105.38
2022-09-02T05:19:54.027Z,73103.38
2022-09-02T05:20:28.616Z,73095.41
2022-09-02T05:21:05.461Z,73099.41
2022-09-02T05:21:43.268Z,73105.38
2022-09-02T05:22:20.010Z,73101.41
2022-09-02T05:22:52.651Z,73101.41
2022-09-02T05:23:27.599Z,73101.41
2022-09-02T05:24:00.425Z,73097.41
2022-09-02T05:24:32.982Z,73101.41
2022-09-02T05:25:14.113Z,73097.41
2022-09-02T05:25:46.417Z,73101.41
2022-09-02T05:26:20.132Z,73103.38
2022-09-02T05:26:58.205Z,73097.41
2022-09-02T05:27:33.297Z,73101.41
2022-09-02T05:28:06.160Z,73101.41
2022-09-02T05:28:41.105Z,73099.41
2022-09-02T05:29:14.424Z,73097.41
2022-09-02T05:29:47.960Z,73097.41
2022-09-02T05:30:26.274Z,73097.41
2022-09-02T05:31:05.661Z,73097.41
2022-09-02T05:31:40.485Z,73091.41
2022-09-02T05:32:16.246Z,73097.41
2022-09-02T05:32:50.801Z,73093.41
2022-09-02T05:33:23.761Z,73101.41
2022-09-02T05:33:59.174Z,73097.41
2022-09-02T05:34:33.518Z,73089.41
2022-09-02T05:35:11.300Z,73091.41
2022-09-02T05:35:45.811Z,73101.41
2022-09-02T05:36:22.486Z,73099.41
2022-09-02T05:36:58.945Z,73093.41
2022-09-02T05:37:35.747Z,73093.41
2022-09-02T05:38:10.170Z,73093.41
2022-09-02T05:38:45.872Z,73093.41
2022-09-02T05:39:18.377Z,73089.41
2022-09-02T05:39:51.852Z,73093.41
2022-09-02T05:40:28.891Z,73091.41
2022-09-02T05:41:08.280Z,73087.41
2022-09-02T05:41:43.750Z,73081.44
2022-09-02T05:42:20.726Z,73091.41
2022-09-02T05:42:56.209Z,73083.44
2022-09-02T05:43:31.374Z,73083.44
2022-09-02T05:44:04.865Z,73085.44
2022-09-02T05:44:39.142Z,73085.44
2022-09-02T05:45:16.683Z,73085.44
2022-09-02T05:45:49.816Z,73085.44
2022-09-02T05:46:25.162Z,73081.44
2022-09-02T05:47:00.109Z,73079.44
2022-09-02T05:47:36.746Z,73081.44
2022-09-02T05:48:25.097Z,73081.44
2022-09-02T05:49:08.950Z,73085.44
2022-09-02T05:49:53.705Z,73081.44
2022-09-02T05:50:28.190Z,73073.44
2022-09-02T05:51:05.478Z,73069.47
2022-09-02T05:51:44.486Z,73073.44
2022-09-02T05:52:18.330Z,73073.44
2022-09-02T05:52:59.598Z,73073.44
2022-09-02T05:53:33.069Z,73069.47
2022-09-02T05:54:05.490Z,73069.47
2022-09-02T05:54:39.501Z,73073.44
2022-09-02T05:55:17.622Z,73069.47
2022-09-02T05:55:50.398Z,73069.47
2022-09-02T05:56:23.902Z,73069.47
2022-09-02T05:57:00.170Z,73065.47
2022-09-02T05:57:35.353Z,73069.47
2022-09-02T05:58:14.021Z,73073.44
2022-09-02T05:58:46.354Z,73069.47
2022-09-02T05:59:19.808Z,73067.47
2022-09-02T05:59:56.846Z,73067.47
2022-09-02T06:00:34.941Z,73065.47
2022-09-02T06:01:09.409Z,73067.47
2022-09-02T06:01:45.178Z,73067.47
2022-09-02T06:02:18.447Z,73065.47
2022-09-02T06:02:53.534Z,73065.47
2022-09-02T06:03:37.059Z,73061.47
2022-09-02T06:04:10.718Z,73061.47
2022-09-02T06:04:49.334Z,73065.47
2022-09-02T06:05:22.565Z,73057.47
2022-09-02T06:06:09.902Z,73067.47
2022-09-02T06:06:45.196Z,73059.47
2022-09-02T06:07:24.878Z,73061.47
2022-09-02T06:07:58.582Z,73055.47
2022-09-02T06:08:31.652Z,73053.50
2022-09-02T06:09:08.069Z,73057.47
2022-09-02T06:09:41.298Z,73059.47
2022-09-02T06:10:14.462Z,73053.50
2022-09-02T06:10:49.810Z,73053.50
2022-09-02T06:11:26.015Z,73053.50
2022-09-02T06:11:58.706Z,73057.47
2022-09-02T06:12:42.832Z,73047.50
2022-09-02T06:13:16.070Z,73051.50
2022-09-02T06:13:49.472Z,73049.50
2022-09-02T06:14:27.291Z,73045.50
2022-09-02T06:15:03.102Z,73045.50
2022-09-02T06:15:35.611Z,73043.50
2022-09-02T06:16:13.517Z,73045.50
2022-09-02T06:16:49.118Z,73043.50
2022-09-02T06:17:29.478Z,73041.50
2022-09-02T06:18:02.450Z,73045.50
2022-09-02T06:18:36.974Z,73041.50
2022-09-02T06:19:15.289Z,73045.50
2022-09-02T06:19:52.563Z,73045.50
2022-09-02T06:20:29.292Z,73039.50
2022-09-02T06:21:06.553Z,73041.50
2022-09-02T06:21:43.975Z,73037.53
2022-09-02T06:22:19.570Z,73045.50
2022-09-02T06:22:53.213Z,73037.53
2022-09-02T06:23:26.446Z,73045.50
2022-09-02T06:24:01.523Z,73045.50
2022-09-02T06:24:34.296Z,73045.50
2022-09-02T06:25:12.430Z,73041.50
2022-09-02T06:25:50.514Z,73041.50
2022-09-02T06:26:23.909Z,73041.50
2022-09-02T06:26:56.478Z,73045.50
2022-09-02T06:27:33.672Z,73041.50
2022-09-02T06:28:09.748Z,73039.50
2022-09-02T06:28:48.321Z,73039.50
2022-09-02T06:29:22.595Z,73033.53
2022-09-02T06:29:55.054Z,73043.50
2022-09-02T06:30:32.957Z,73041.50
2022-09-02T06:31:09.983Z,73039.50
2022-09-02T06:31:46.190Z,73041.50
2022-09-02T06:32:19.060Z,73039.50
2022-09-02T06:32:51.405Z,73045.50
2022-09-02T06:33:28.340Z,73039.50
2022-09-02T06:34:01.329Z,73045.50
2022-09-02T06:34:37.250Z,73037.53
2022-09-02T06:35:14.152Z,73041.50
2022-09-02T06:35:46.831Z,73039.50
2022-09-02T06:36:28.281Z,73041.50
2022-09-02T06:37:01.297Z,73037.53
2022-09-02T06:37:36.378Z,73045.50
2022-09-02T06:38:11.257Z,73035.53
2022-09-02T06:38:50.658Z,73041.50
2022-09-02T06:39:26.013Z,73041.50
2022-09-02T06:40:01.130Z,73037.53
2022-09-02T06:40:37.869Z,73033.53
2022-09-02T06:41:11.826Z,73039.50
2022-09-02T06:41:51.431Z,73031.53
2022-09-02T06:42:27.019Z,73029.53
2022-09-02T06:43:18.695Z,73029.53
2022-09-02T06:44:16.199Z,73029.53
2022-09-02T06:44:49.682Z,73025.53
2022-09-02T06:45:24.646Z,73029.53
2022-09-02T06:45:59.306Z,73027.53
2022-09-02T06:46:33.695Z,73029.53
2022-09-02T06:47:10.517Z,73025.53
2022-09-02T06:47:43.390Z,73025.53
2022-09-02T06:48:16.212Z,73021.56
2022-09-02T06:48:52.278Z,73025.53
2022-09-02T06:49:28.587Z,73025.53
2022-09-02T06:50:05.671Z,73031.53
2022-09-02T06:50:39.353Z,73021.56
2022-09-02T06:51:16.970Z,73025.53
2022-09-02T06:51:54.311Z,73023.53
2022-09-02T06:52:30.085Z,73021.56
2022-09-02T06:53:05.164Z,73017.56
2022-09-02T06:53:40.726Z,73015.56
2022-09-02T06:54:15.226Z,73017.56
2022-09-02T06:54:52.273Z,73015.56